sensor_id;sensor_type;location;lat;lon;timestamp;temperature;humidity
47895;DHT22;33653;52.302;8.134;2023-05-10T15:26:46;20.40;99.90
47895;DHT22;33653;52.302;8.134;2023-05-10T15:31:47;18.50;99.90
47895;DHT22;33653;52.302;8.134;2023-05-10T15:34:16;20.30;99.90
47895;DHT22;33653;52.302;8.134;2023-05-10T15:36:45;20.40;99.90
47895;DHT22;33653;52.302;8.134;2023-05-10T15:46:39;22.20;99.90
47895;DHT22;33653;52.302;8.134;2023-05-10T15:51:36;21.30;99.90
47895;DHT22;33653;52.302;8.134;2023-05-10T15:54:04;20.50;99.90
47895;DHT22;33653;52.302;8.134;2023-05-10T16:04:01;19.60;99.90
47895;DHT22;33653;52.302;8.134;2023-05-10T16:06:29;21.50;99.90
47895;DHT22;33653;52.302;8.134;2023-05-10T18:27:19;17.60;99.90
47895;DHT22;33653;52.302;8.134;2023-05-10T18:29:48;18.20;99.90
47895;DHT22;33653;52.302;8.134;2023-05-10T18:32:16;17.20;99.90
47895;DHT22;33653;52.302;8.134;2023-05-10T18:34:45;16.70;99.90
47895;DHT22;33653;52.302;8.134;2023-05-10T18:37:13;16.70;99.90
47895;DHT22;33653;52.302;8.134;2023-05-10T18:39:42;17.00;99.90
47895;DHT22;33653;52.302;8.134;2023-05-10T18:42:10;16.80;99.90
47895;DHT22;33653;52.302;8.134;2023-05-10T18:44:38;16.40;99.90
47895;DHT22;33653;52.302;8.134;2023-05-10T18:47:06;16.80;99.90
47895;DHT22;33653;52.302;8.134;2023-05-10T18:49:34;16.20;99.90
47895;DHT22;33653;52.302;8.134;2023-05-10T18:52:02;15.70;99.90
47895;DHT22;33653;52.302;8.134;2023-05-10T18:54:30;17.10;99.90
47895;DHT22;33653;52.302;8.134;2023-05-10T18:56:58;15.40;99.90
47895;DHT22;33653;52.302;8.134;2023-05-10T18:59:26;16.10;99.90
47895;DHT22;33653;52.302;8.134;2023-05-10T19:01:54;16.40;99.90
47895;DHT22;33653;52.302;8.134;2023-05-10T19:04:24;15.30;99.90
47895;DHT22;33653;52.302;8.134;2023-05-10T19:06:52;17.20;99.90
47895;DHT22;33653;52.302;8.134;2023-05-10T19:09:21;15.70;99.90
47895;DHT22;33653;52.302;8.134;2023-05-10T19:11:50;15.90;99.90
47895;DHT22;33653;52.302;8.134;2023-05-10T19:14:19;16.40;99.90
47895;DHT22;33653;52.302;8.134;2023-05-10T19:16:47;16.20;99.90
47895;DHT22;33653;52.302;8.134;2023-05-10T19:21:47;15.50;99.90
47895;DHT22;33653;52.302;8.134;2023-05-10T19:29:15;14.90;99.90
47895;DHT22;33653;52.302;8.134;2023-05-10T19:31:43;15.80;99.90
47895;DHT22;33653;52.302;8.134;2023-05-10T19:34:11;16.00;99.90
47895;DHT22;33653;52.302;8.134;2023-05-10T19:36:39;15.30;99.90
47895;DHT22;33653;52.302;8.134;2023-05-10T19:39:08;15.40;99.90
47895;DHT22;33653;52.302;8.134;2023-05-10T19:41:36;15.00;99.90
47895;DHT22;33653;52.302;8.134;2023-05-10T19:44:04;14.80;99.90
47895;DHT22;33653;52.302;8.134;2023-05-10T19:46:33;16.30;99.90
47895;DHT22;33653;52.302;8.134;2023-05-10T19:49:01;16.10;99.90
47895;DHT22;33653;52.302;8.134;2023-05-10T19:51:29;15.90;99.90
47895;DHT22;33653;52.302;8.134;2023-05-10T19:53:57;14.20;99.90
47895;DHT22;33653;52.302;8.134;2023-05-10T19:56:25;15.00;99.90
47895;DHT22;33653;52.302;8.134;2023-05-10T19:58:55;15.40;99.90
47895;DHT22;33653;52.302;8.134;2023-05-10T20:01:23;15.40;99.90
47895;DHT22;33653;52.302;8.134;2023-05-10T20:03:51;14.10;99.90
47895;DHT22;33653;52.302;8.134;2023-05-10T20:06:19;14.60;99.90
47895;DHT22;33653;52.302;8.134;2023-05-10T20:08:47;14.80;99.90
47895;DHT22;33653;52.302;8.134;2023-05-10T20:11:15;14.00;99.90
47895;DHT22;33653;52.302;8.134;2023-05-10T20:13:43;14.50;99.90
47895;DHT22;33653;52.302;8.134;2023-05-10T20:16:11;15.10;99.90
47895;DHT22;33653;52.302;8.134;2023-05-10T20:18:39;16.00;99.90
47895;DHT22;33653;52.302;8.134;2023-05-10T20:21:07;14.60;99.90
47895;DHT22;33653;52.302;8.134;2023-05-10T20:23:35;14.60;99.90
47895;DHT22;33653;52.302;8.134;2023-05-10T20:26:03;15.50;99.90
47895;DHT22;33653;52.302;8.134;2023-05-10T20:28:31;14.10;99.90
47895;DHT22;33653;52.302;8.134;2023-05-10T20:30:59;14.10;99.90
47895;DHT22;33653;52.302;8.134;2023-05-10T20:33:28;14.10;99.90
47895;DHT22;33653;52.302;8.134;2023-05-10T20:35:56;14.40;99.90
47895;DHT22;33653;52.302;8.134;2023-05-10T20:38:25;13.20;99.90
47895;DHT22;33653;52.302;8.134;2023-05-10T20:40:53;14.90;99.90
47895;DHT22;33653;52.302;8.134;2023-05-10T20:43:20;14.90;99.90
47895;DHT22;33653;52.302;8.134;2023-05-10T20:45:48;14.10;99.90
47895;DHT22;33653;52.302;8.134;2023-05-10T20:48:16;14.40;99.90
47895;DHT22;33653;52.302;8.134;2023-05-10T20:50:46;14.50;99.90
47895;DHT22;33653;52.302;8.134;2023-05-10T20:53:14;14.80;99.90
47895;DHT22;33653;52.302;8.134;2023-05-10T20:55:43;15.70;99.90
47895;DHT22;33653;52.302;8.134;2023-05-10T20:58:11;14.20;99.90
47895;DHT22;33653;52.302;8.134;2023-05-10T21:00:39;14.80;99.90
47895;DHT22;33653;52.302;8.134;2023-05-10T21:03:07;14.60;99.90
47895;DHT22;33653;52.302;8.134;2023-05-10T21:05:35;14.70;99.90
47895;DHT22;33653;52.302;8.134;2023-05-10T21:08:03;14.30;99.90
47895;DHT22;33653;52.302;8.134;2023-05-10T21:10:32;15.00;99.90
47895;DHT22;33653;52.302;8.134;2023-05-10T21:13:00;13.90;99.90
47895;DHT22;33653;52.302;8.134;2023-05-10T21:15:28;14.60;99.90
47895;DHT22;33653;52.302;8.134;2023-05-10T21:17:57;13.90;99.90
47895;DHT22;33653;52.302;8.134;2023-05-10T21:20:26;14.10;99.90
47895;DHT22;33653;52.302;8.134;2023-05-10T21:22:55;14.30;99.90
47895;DHT22;33653;52.302;8.134;2023-05-10T21:25:23;14.80;99.90
47895;DHT22;33653;52.302;8.134;2023-05-10T21:27:51;14.30;99.90
47895;DHT22;33653;52.302;8.134;2023-05-10T21:30:19;12.70;99.90
47895;DHT22;33653;52.302;8.134;2023-05-10T21:32:48;14.40;99.90
47895;DHT22;33653;52.302;8.134;2023-05-10T21:35:16;14.00;99.90
47895;DHT22;33653;52.302;8.134;2023-05-10T21:37:44;14.30;99.90
47895;DHT22;33653;52.302;8.134;2023-05-10T21:40:14;13.70;99.90
47895;DHT22;33653;52.302;8.134;2023-05-10T21:45:18;14.10;99.90
47895;DHT22;33653;52.302;8.134;2023-05-10T21:47:46;14.30;99.90
47895;DHT22;33653;52.302;8.134;2023-05-10T21:50:14;12.80;99.90
47895;DHT22;33653;52.302;8.134;2023-05-10T21:52:42;13.90;99.90
47895;DHT22;33653;52.302;8.134;2023-05-10T21:55:10;13.00;99.90
47895;DHT22;33653;52.302;8.134;2023-05-10T21:57:38;13.00;99.90
47895;DHT22;33653;52.302;8.134;2023-05-10T22:00:08;14.30;99.90
47895;DHT22;33653;52.302;8.134;2023-05-10T22:02:39;13.80;99.90
47895;DHT22;33653;52.302;8.134;2023-05-10T22:05:07;13.90;99.90
47895;DHT22;33653;52.302;8.134;2023-05-10T22:07:35;14.00;99.90
47895;DHT22;33653;52.302;8.134;2023-05-10T22:10:04;14.70;99.90
47895;DHT22;33653;52.302;8.134;2023-05-10T22:12:33;13.90;99.90
47895;DHT22;33653;52.302;8.134;2023-05-10T22:15:01;13.90;99.90
47895;DHT22;33653;52.302;8.134;2023-05-10T22:20:00;14.20;99.90
47895;DHT22;33653;52.302;8.134;2023-05-10T22:22:28;14.00;99.90
47895;DHT22;33653;52.302;8.134;2023-05-10T22:24:57;13.00;99.90
47895;DHT22;33653;52.302;8.134;2023-05-10T22:27:25;13.90;99.90
47895;DHT22;33653;52.302;8.134;2023-05-10T22:29:53;13.70;99.90
47895;DHT22;33653;52.302;8.134;2023-05-10T22:32:21;14.90;99.90
47895;DHT22;33653;52.302;8.134;2023-05-10T22:34:49;13.80;99.90
47895;DHT22;33653;52.302;8.134;2023-05-10T22:37:17;14.00;99.90
47895;DHT22;33653;52.302;8.134;2023-05-10T22:42:13;14.30;99.90
47895;DHT22;33653;52.302;8.134;2023-05-10T22:44:42;13.80;99.90
47895;DHT22;33653;52.302;8.134;2023-05-10T22:47:10;13.30;99.90
47895;DHT22;33653;52.302;8.134;2023-05-10T22:49:39;13.00;99.90
47895;DHT22;33653;52.302;8.134;2023-05-10T22:52:07;14.10;99.90
47895;DHT22;33653;52.302;8.134;2023-05-10T22:54:35;14.60;99.90
47895;DHT22;33653;52.302;8.134;2023-05-10T22:57:03;14.00;99.90
47895;DHT22;33653;52.302;8.134;2023-05-10T22:59:32;14.10;99.90
47895;DHT22;33653;52.302;8.134;2023-05-10T23:02:00;13.60;99.90
47895;DHT22;33653;52.302;8.134;2023-05-10T23:04:28;13.90;99.90
47895;DHT22;33653;52.302;8.134;2023-05-10T23:06:57;14.80;99.90
47895;DHT22;33653;52.302;8.134;2023-05-10T23:09:25;13.40;99.90
47895;DHT22;33653;52.302;8.134;2023-05-10T23:11:53;13.70;99.90
47895;DHT22;33653;52.302;8.134;2023-05-10T23:14:21;14.40;99.90
47895;DHT22;33653;52.302;8.134;2023-05-10T23:16:49;14.40;99.90
47895;DHT22;33653;52.302;8.134;2023-05-10T23:19:17;12.70;99.90
47895;DHT22;33653;52.302;8.134;2023-05-10T23:21:45;13.60;99.90
47895;DHT22;33653;52.302;8.134;2023-05-10T23:24:13;14.00;99.90
47895;DHT22;33653;52.302;8.134;2023-05-10T23:26:41;13.90;99.90
47895;DHT22;33653;52.302;8.134;2023-05-10T23:29:11;13.60;99.90
47895;DHT22;33653;52.302;8.134;2023-05-10T23:31:39;13.90;99.90
47895;DHT22;33653;52.302;8.134;2023-05-10T23:34:12;14.00;99.90
47895;DHT22;33653;52.302;8.134;2023-05-10T23:36:39;13.00;99.90
47895;DHT22;33653;52.302;8.134;2023-05-10T23:39:07;14.50;99.90
47895;DHT22;33653;52.302;8.134;2023-05-10T23:41:35;14.10;99.90
47895;DHT22;33653;52.302;8.134;2023-05-10T23:44:04;12.90;99.90
47895;DHT22;33653;52.302;8.134;2023-05-10T23:46:32;13.80;99.90
47895;DHT22;33653;52.302;8.134;2023-05-10T23:49:00;13.80;99.90
47895;DHT22;33653;52.302;8.134;2023-05-10T23:51:28;14.90;99.90
47895;DHT22;33653;52.302;8.134;2023-05-10T23:53:56;14.00;99.90
47895;DHT22;33653;52.302;8.134;2023-05-10T23:58:53;14.00;99.90
